Chariton Municipal Airport
Tuesday 2:15 PM
Weather Partly Cloudy
VFR
Temperature 88°
Dew Point 72°
Feels Like 94°
Relative Humidity 59
%
Visibility 9
mi
Pressure 1010.5
mb
Wind Direction S
Wind Speed 21
mph
Last Hour Precip 0.00
"
KCNC 181915Z AUTO 19018G27KT 9SM SCT042 BKN050 31/22 A2984 RMK AO2

Recent Observations

Time Present Weather Temp DP Feels RH% Vsby Pressure Ceiling Direction Speed Gust 1h Precip
2:15PM
VFR
88° 72° 94° 59
%
9
mi
1010.5
mb
5000
ft
S 21
mph
31
mph
0.00"
KCNC 181915Z AUTO 19018G27KT 9SM SCT042 BKN050 31/22 A2984 RMK AO2
1:55PM
VFR
86° 72° 92° 62
%
9
mi
1010.5
mb
5000
ft
SSW 23
mph
31
mph
0.00"
KCNC 181855Z AUTO 20020G27KT 9SM FEW041 BKN050 30/22 A2984 RMK AO2
1:35PM
VFR
86° 72° 92° 62
%
9
mi
1010.5
mb
5000
ft
S 20
mph
26
mph
0.00"
KCNC 181835Z AUTO 19017G23KT 9SM SCT042 BKN050 30/22 A2984 RMK AO2
1:15PM
VFR
86° 73° 93° 66
%
9
mi
1010.8
mb
4200
ft
SSW 20
mph
30
mph
0.00"
KCNC 181815Z AUTO 20017G26KT 9SM BKN042 BKN047 30/23 A2985 RMK AO2
12:55PM
VFR
86° 72° 92° 62
%
9
mi
1010.5
mb
3700
ft
SSW 22
mph
0.00"
KCNC 181755Z AUTO 21019KT 9SM BKN037 BKN046 30/22 A2984 RMK AO2
12:35PM
VFR
86° 73° 93° 66
%
9
mi
1010.2
mb
None S 22
mph
35
mph
0.00"
KCNC 181735Z AUTO 19019G30KT 9SM SCT035 SCT041 30/23 A2983 RMK AO2
12:15PM 86° 73° 93° 66
%
1009.5
mb
None S 22
mph
30
mph
0.00"
KCNC 181715Z AUTO 18019G26KT SCT032 SCT041 30/23 A2981 RMK AO2
11:55AM
VFR
84° 73° 91° 70
%
9
mi
1009.5
mb
3100
ft
S 22
mph
33
mph
0.00"
KCNC 181655Z AUTO 19019G29KT 9SM BKN031 BKN036 29/23 A2981 RMK AO2
11:35AM
VFR
84° 73° 91° 70
%
9
mi
1009.5
mb
3000
ft
S 24
mph
35
mph
0.00"
KCNC 181635Z AUTO 18021G30KT 9SM BKN030 BKN036 29/23 A2981 RMK AO2
11:15AM
VFR
84° 72° 90° 66
%
9
mi
1009.8
mb
3000
ft
S 26
mph
40
mph
0.00"
KCNC 181615Z AUTO 19023G35KT 9SM BKN030 BKN035 29/22 A2982 RMK AO2
10:55AM
MVFR
82° 72° 87° 70
%
9
mi
1009.8
mb
2700
ft
S 28
mph
36
mph
0.00"
KCNC 181555Z AUTO 18024G31KT 9SM BKN027 OVC032 28/22 A2982 RMK AO2
10:35AM
MVFR
82° 72° 87° 70
%
9
mi
1009.8
mb
2600
ft
S 25
mph
35
mph
0.00"
KCNC 181535Z AUTO 18022G30KT 9SM BKN026 BKN033 28/22 A2982 RMK AO2
10:15AM
MVFR
82° 72° 87° 70
%
9
mi
1009.8
mb
2600
ft
S 24
mph
32
mph
0.00"
KCNC 181515Z AUTO 18021G28KT 9SM BKN026 BKN033 28/22 A2982 RMK AO2
9:55AM
MVFR
81° 73° 85° 79
%
10
mi
1009.8
mb
2500
ft
S 23
mph
36
mph
0.00"
KCNC 181455Z AUTO 18020G31KT 10SM BKN025 BKN033 27/23 A2982 RMK AO2
9:35AM
MVFR
81° 73° 85° 79
%
10
mi
1009.8
mb
2400
ft
S 23
mph
33
mph
0.00"
KCNC 181435Z AUTO 18020G29KT 10SM BKN024 27/23 A2982 RMK AO2
9:15AM
MVFR
81° 73° 85° 79
%
9
mi
1010.2
mb
2200
ft
S 24
mph
32
mph
0.00"
KCNC 181415Z AUTO 19021G28KT 9SM BKN022 BKN026 27/23 A2983 RMK AO2
8:55AM
MVFR
79° 72° 79° 79
%
9
mi
1010.2
mb
2200
ft
S 21
mph
30
mph
0.00"
KCNC 181355Z AUTO 18018G26KT 9SM OVC022 26/22 A2983 RMK AO2
8:35AM
MVFR
79° 72° 79° 79
%
9
mi
1009.8
mb
2200
ft
S 22
mph
31
mph
0.00"
KCNC 181335Z AUTO 19019G27KT 9SM OVC022 26/22 A2982 RMK AO2
8:15AM
MVFR
77° 72° 77° 83
%
10
mi
1009.8
mb
2100
ft
S 24
mph
0.00"
KCNC 181315Z AUTO 19021KT 10SM BKN021 25/22 A2982 RMK AO2
7:55AM
MVFR
77° 72° 77° 83
%
9
mi
1010.2
mb
2000
ft
S 23
mph
37
mph
0.00"
KCNC 181255Z AUTO 17020G32KT 9SM BKN020 25/22 A2983 RMK AO2
Click here to show this page without METARs/TAFs included